sensor_id;sensor_type;location;lat;lon;timestamp;P1;durP1;ratioP1;P2;durP2;ratioP2
283;SDS011;125;52.516;13.426;2023-06-22T00:00:33;5.47;;;4.50;;
283;SDS011;125;52.516;13.426;2023-06-22T00:03:00;4.90;;;4.40;;
283;SDS011;125;52.516;13.426;2023-06-22T00:05:27;3.43;;;3.23;;
283;SDS011;125;52.516;13.426;2023-06-22T00:07:54;4.13;;;3.87;;
283;SDS011;125;52.516;13.426;2023-06-22T00:10:22;4.10;;;3.30;;
283;SDS011;125;52.516;13.426;2023-06-22T00:12:49;7.23;;;3.80;;
283;SDS011;125;52.516;13.426;2023-06-22T00:15:16;1.97;;;1.57;;
283;SDS011;125;52.516;13.426;2023-06-22T00:17:43;3.97;;;3.03;;
283;SDS011;125;52.516;13.426;2023-06-22T00:20:10;5.13;;;4.83;;
283;SDS011;125;52.516;13.426;2023-06-22T00:22:39;3.00;;;2.80;;
283;SDS011;125;52.516;13.426;2023-06-22T00:25:07;3.53;;;3.33;;
283;SDS011;125;52.516;13.426;2023-06-22T00:27:35;5.40;;;5.10;;
283;SDS011;125;52.516;13.426;2023-06-22T00:30:03;2.50;;;1.53;;
283;SDS011;125;52.516;13.426;2023-06-22T00:32:30;2.83;;;2.63;;
283;SDS011;125;52.516;13.426;2023-06-22T00:34:57;3.43;;;3.23;;
283;SDS011;125;52.516;13.426;2023-06-22T00:37:25;2.83;;;2.63;;
283;SDS011;125;52.516;13.426;2023-06-22T00:39:54;3.23;;;3.03;;
283;SDS011;125;52.516;13.426;2023-06-22T00:42:21;3.83;;;3.63;;
283;SDS011;125;52.516;13.426;2023-06-22T00:44:50;4.47;;;3.70;;
283;SDS011;125;52.516;13.426;2023-06-22T00:47:17;1.93;;;1.77;;
283;SDS011;125;52.516;13.426;2023-06-22T00:49:45;1.87;;;1.77;;
283;SDS011;125;52.516;13.426;2023-06-22T00:52:13;2.43;;;2.13;;
283;SDS011;125;52.516;13.426;2023-06-22T00:54:46;4.90;;;3.10;;
283;SDS011;125;52.516;13.426;2023-06-22T00:57:14;3.27;;;3.13;;
283;SDS011;125;52.516;13.426;2023-06-22T00:59:41;10.13;;;4.83;;
283;SDS011;125;52.516;13.426;2023-06-22T01:02:10;4.60;;;2.70;;
283;SDS011;125;52.516;13.426;2023-06-22T01:04:37;7.77;;;5.40;;
283;SDS011;125;52.516;13.426;2023-06-22T01:07:06;2.97;;;2.80;;
283;SDS011;125;52.516;13.426;2023-06-22T01:09:39;5.00;;;3.57;;
283;SDS011;125;52.516;13.426;2023-06-22T01:12:11;4.90;;;3.60;;
283;SDS011;125;52.516;13.426;2023-06-22T01:14:42;3.03;;;1.90;;
283;SDS011;125;52.516;13.426;2023-06-22T01:17:11;3.17;;;2.63;;
283;SDS011;125;52.516;13.426;2023-06-22T01:19:43;5.80;;;4.50;;
283;SDS011;125;52.516;13.426;2023-06-22T01:22:11;5.20;;;4.90;;
283;SDS011;125;52.516;13.426;2023-06-22T01:24:42;4.53;;;3.60;;
283;SDS011;125;52.516;13.426;2023-06-22T01:27:14;3.87;;;3.53;;
283;SDS011;125;52.516;13.426;2023-06-22T01:29:48;2.90;;;2.70;;
283;SDS011;125;52.516;13.426;2023-06-22T01:32:16;3.30;;;3.10;;
283;SDS011;125;52.516;13.426;2023-06-22T01:34:43;3.37;;;3.17;;
283;SDS011;125;52.516;13.426;2023-06-22T01:37:11;4.30;;;3.53;;
283;SDS011;125;52.516;13.426;2023-06-22T01:39:38;1.50;;;1.47;;
283;SDS011;125;52.516;13.426;2023-06-22T01:42:06;3.63;;;3.20;;
283;SDS011;125;52.516;13.426;2023-06-22T01:44:33;2.77;;;2.57;;
283;SDS011;125;52.516;13.426;2023-06-22T01:47:02;7.87;;;4.70;;
283;SDS011;125;52.516;13.426;2023-06-22T01:49:29;4.43;;;4.13;;
283;SDS011;125;52.516;13.426;2023-06-22T01:51:56;4.33;;;4.03;;
283;SDS011;125;52.516;13.426;2023-06-22T01:54:23;2.90;;;2.70;;
283;SDS011;125;52.516;13.426;2023-06-22T01:56:50;3.70;;;2.40;;
283;SDS011;125;52.516;13.426;2023-06-22T01:59:17;4.03;;;3.83;;
283;SDS011;125;52.516;13.426;2023-06-22T02:01:49;3.13;;;2.93;;
283;SDS011;125;52.516;13.426;2023-06-22T02:04:21;4.57;;;3.50;;
283;SDS011;125;52.516;13.426;2023-06-22T02:06:49;5.27;;;4.97;;
283;SDS011;125;52.516;13.426;2023-06-22T02:09:17;4.37;;;3.10;;
283;SDS011;125;52.516;13.426;2023-06-22T02:11:46;3.43;;;2.80;;
283;SDS011;125;52.516;13.426;2023-06-22T02:14:13;7.67;;;4.43;;
283;SDS011;125;52.516;13.426;2023-06-22T02:16:41;1.67;;;1.43;;
283;SDS011;125;52.516;13.426;2023-06-22T02:19:08;8.60;;;4.17;;
283;SDS011;125;52.516;13.426;2023-06-22T02:21:36;3.07;;;2.87;;
283;SDS011;125;52.516;13.426;2023-06-22T02:24:04;4.90;;;4.60;;
283;SDS011;125;52.516;13.426;2023-06-22T02:26:31;7.70;;;4.13;;
283;SDS011;125;52.516;13.426;2023-06-22T02:28:59;2.87;;;2.67;;
283;SDS011;125;52.516;13.426;2023-06-22T02:31:26;4.00;;;3.13;;
283;SDS011;125;52.516;13.426;2023-06-22T02:33:55;3.87;;;3.10;;
283;SDS011;125;52.516;13.426;2023-06-22T02:36:22;3.13;;;2.93;;
283;SDS011;125;52.516;13.426;2023-06-22T02:38:51;2.80;;;2.60;;
283;SDS011;125;52.516;13.426;2023-06-22T02:41:19;1.87;;;1.60;;
283;SDS011;125;52.516;13.426;2023-06-22T02:43:46;4.47;;;3.50;;
283;SDS011;125;52.516;13.426;2023-06-22T02:46:13;4.23;;;3.97;;
283;SDS011;125;52.516;13.426;2023-06-22T02:48:40;2.93;;;2.73;;
283;SDS011;125;52.516;13.426;2023-06-22T02:51:07;4.73;;;4.50;;
283;SDS011;125;52.516;13.426;2023-06-22T02:53:34;5.33;;;4.70;;
283;SDS011;125;52.516;13.426;2023-06-22T02:56:03;6.27;;;4.40;;
283;SDS011;125;52.516;13.426;2023-06-22T02:58:30;6.00;;;4.90;;
283;SDS011;125;52.516;13.426;2023-06-22T03:01:03;4.13;;;3.90;;
283;SDS011;125;52.516;13.426;2023-06-22T03:03:30;4.57;;;4.27;;
283;SDS011;125;52.516;13.426;2023-06-22T03:05:57;4.40;;;4.10;;
283;SDS011;125;52.516;13.426;2023-06-22T03:08:25;8.97;;;6.10;;
283;SDS011;125;52.516;13.426;2023-06-22T03:10:52;7.20;;;3.97;;
283;SDS011;125;52.516;13.426;2023-06-22T03:13:22;4.37;;;4.10;;
283;SDS011;125;52.516;13.426;2023-06-22T03:15:49;3.80;;;2.73;;
283;SDS011;125;52.516;13.426;2023-06-22T03:18:16;4.03;;;3.83;;
283;SDS011;125;52.516;13.426;2023-06-22T03:20:43;4.90;;;4.60;;
283;SDS011;125;52.516;13.426;2023-06-22T03:23:10;4.43;;;4.13;;
283;SDS011;125;52.516;13.426;2023-06-22T03:25:36;3.53;;;3.33;;
283;SDS011;125;52.516;13.426;2023-06-22T03:28:03;7.17;;;6.77;;
283;SDS011;125;52.516;13.426;2023-06-22T03:30:32;4.87;;;2.77;;
283;SDS011;125;52.516;13.426;2023-06-22T03:32:59;3.47;;;3.27;;
283;SDS011;125;52.516;13.426;2023-06-22T03:35:26;4.23;;;3.57;;
283;SDS011;125;52.516;13.426;2023-06-22T03:37:53;4.87;;;3.97;;
283;SDS011;125;52.516;13.426;2023-06-22T03:40:20;3.07;;;2.87;;
283;SDS011;125;52.516;13.426;2023-06-22T03:42:47;3.80;;;3.33;;
283;SDS011;125;52.516;13.426;2023-06-22T03:45:14;3.40;;;3.20;;
283;SDS011;125;52.516;13.426;2023-06-22T03:47:42;4.30;;;3.93;;
283;SDS011;125;52.516;13.426;2023-06-22T03:50:09;3.70;;;3.00;;
283;SDS011;125;52.516;13.426;2023-06-22T03:52:36;4.33;;;3.10;;
283;SDS011;125;52.516;13.426;2023-06-22T03:55:03;7.03;;;6.63;;
283;SDS011;125;52.516;13.426;2023-06-22T03:57:30;1.90;;;1.80;;
283;SDS011;125;52.516;13.426;2023-06-22T03:59:58;3.90;;;3.17;;
283;SDS011;125;52.516;13.426;2023-06-22T04:02:25;4.50;;;3.63;;
283;SDS011;125;52.516;13.426;2023-06-22T04:04:53;3.27;;;3.03;;
283;SDS011;125;52.516;13.426;2023-06-22T04:07:20;3.87;;;3.67;;
283;SDS011;125;52.516;13.426;2023-06-22T04:09:47;7.73;;;2.43;;
283;SDS011;125;52.516;13.426;2023-06-22T04:12:14;2.70;;;2.53;;
283;SDS011;125;52.516;13.426;2023-06-22T04:14:41;1.90;;;1.83;;
283;SDS011;125;52.516;13.426;2023-06-22T04:17:08;1.70;;;1.67;;
283;SDS011;125;52.516;13.426;2023-06-22T04:19:35;2.43;;;1.53;;
283;SDS011;125;52.516;13.426;2023-06-22T04:22:03;2.47;;;2.27;;
283;SDS011;125;52.516;13.426;2023-06-22T04:24:32;2.23;;;1.70;;
283;SDS011;125;52.516;13.426;2023-06-22T04:26:59;2.63;;;2.17;;
283;SDS011;125;52.516;13.426;2023-06-22T04:29:27;2.07;;;1.03;;
283;SDS011;125;52.516;13.426;2023-06-22T04:31:55;2.43;;;1.60;;
283;SDS011;125;52.516;13.426;2023-06-22T04:34:23;1.20;;;0.90;;
283;SDS011;125;52.516;13.426;2023-06-22T04:36:51;2.70;;;2.50;;
283;SDS011;125;52.516;13.426;2023-06-22T04:39:19;2.63;;;2.43;;
283;SDS011;125;52.516;13.426;2023-06-22T04:41:46;4.13;;;2.30;;
283;SDS011;125;52.516;13.426;2023-06-22T04:44:13;2.60;;;2.03;;
283;SDS011;125;52.516;13.426;2023-06-22T04:46:48;3.13;;;2.30;;
283;SDS011;125;52.516;13.426;2023-06-22T04:49:18;1.63;;;1.17;;
283;SDS011;125;52.516;13.426;2023-06-22T04:51:46;1.93;;;1.27;;
283;SDS011;125;52.516;13.426;2023-06-22T04:54:13;2.40;;;1.63;;
283;SDS011;125;52.516;13.426;2023-06-22T04:56:41;2.60;;;2.37;;
283;SDS011;125;52.516;13.426;2023-06-22T04:59:08;2.10;;;1.63;;
283;SDS011;125;52.516;13.426;2023-06-22T05:01:37;3.30;;;1.70;;
283;SDS011;125;52.516;13.426;2023-06-22T05:04:04;2.20;;;1.40;;
283;SDS011;125;52.516;13.426;2023-06-22T05:06:32;2.50;;;1.47;;
283;SDS011;125;52.516;13.426;2023-06-22T05:08:59;2.90;;;1.67;;
283;SDS011;125;52.516;13.426;2023-06-22T05:11:27;2.53;;;1.70;;
283;SDS011;125;52.516;13.426;2023-06-22T05:13:56;2.47;;;2.03;;
283;SDS011;125;52.516;13.426;2023-06-22T05:16:23;3.60;;;2.10;;
283;SDS011;125;52.516;13.426;2023-06-22T05:18:51;2.13;;;1.70;;
283;SDS011;125;52.516;13.426;2023-06-22T05:21:21;2.10;;;1.63;;
283;SDS011;125;52.516;13.426;2023-06-22T05:23:48;3.50;;;2.37;;
283;SDS011;125;52.516;13.426;2023-06-22T05:26:15;2.87;;;1.67;;
283;SDS011;125;52.516;13.426;2023-06-22T05:28:42;2.60;;;1.57;;
283;SDS011;125;52.516;13.426;2023-06-22T05:31:12;2.30;;;1.73;;
283;SDS011;125;52.516;13.426;2023-06-22T05:33:39;1.90;;;1.60;;
283;SDS011;125;52.516;13.426;2023-06-22T05:36:06;2.63;;;1.67;;
283;SDS011;125;52.516;13.426;2023-06-22T05:38:33;2.50;;;1.83;;
283;SDS011;125;52.516;13.426;2023-06-22T05:41:00;2.60;;;1.97;;
283;SDS011;125;52.516;13.426;2023-06-22T05:43:27;2.23;;;1.40;;
283;SDS011;125;52.516;13.426;2023-06-22T05:45:54;2.70;;;1.30;;
283;SDS011;125;52.516;13.426;2023-06-22T05:48:23;3.10;;;1.67;;
283;SDS011;125;52.516;13.426;2023-06-22T05:50:50;2.27;;;1.57;;
283;SDS011;125;52.516;13.426;2023-06-22T05:53:17;2.70;;;1.90;;
283;SDS011;125;52.516;13.426;2023-06-22T05:55:44;2.70;;;2.50;;
283;SDS011;125;52.516;13.426;2023-06-22T05:58:11;1.83;;;1.30;;
283;SDS011;125;52.516;13.426;2023-06-22T06:00:38;2.90;;;1.43;;
283;SDS011;125;52.516;13.426;2023-06-22T06:03:06;2.07;;;1.40;;
283;SDS011;125;52.516;13.426;2023-06-22T06:05:34;2.07;;;1.70;;
283;SDS011;125;52.516;13.426;2023-06-22T06:08:02;2.93;;;1.83;;
283;SDS011;125;52.516;13.426;2023-06-22T06:10:29;1.70;;;1.30;;
283;SDS011;125;52.516;13.426;2023-06-22T06:12:57;2.37;;;2.23;;
283;SDS011;125;52.516;13.426;2023-06-22T06:15:24;1.90;;;1.70;;
283;SDS011;125;52.516;13.426;2023-06-22T06:17:51;2.47;;;2.27;;
283;SDS011;125;52.516;13.426;2023-06-22T06:20:19;2.10;;;1.47;;
283;SDS011;125;52.516;13.426;2023-06-22T06:22:47;2.03;;;1.30;;
283;SDS011;125;52.516;13.426;2023-06-22T06:25:14;2.30;;;1.90;;
283;SDS011;125;52.516;13.426;2023-06-22T06:27:42;1.50;;;1.23;;
283;SDS011;125;52.516;13.426;2023-06-22T06:30:09;4.80;;;1.77;;
283;SDS011;125;52.516;13.426;2023-06-22T06:32:36;1.43;;;1.27;;
283;SDS011;125;52.516;13.426;2023-06-22T06:35:04;1.80;;;1.10;;
283;SDS011;125;52.516;13.426;2023-06-22T06:37:32;1.57;;;1.20;;
283;SDS011;125;52.516;13.426;2023-06-22T06:40:01;2.50;;;2.07;;
283;SDS011;125;52.516;13.426;2023-06-22T06:42:30;2.17;;;1.83;;
283;SDS011;125;52.516;13.426;2023-06-22T06:44:57;2.37;;;1.93;;
283;SDS011;125;52.516;13.426;2023-06-22T06:47:24;2.50;;;1.63;;
283;SDS011;125;52.516;13.426;2023-06-22T06:49:51;1.50;;;1.17;;
283;SDS011;125;52.516;13.426;2023-06-22T06:52:18;1.53;;;1.07;;
283;SDS011;125;52.516;13.426;2023-06-22T06:54:45;2.70;;;1.50;;
283;SDS011;125;52.516;13.426;2023-06-22T06:57:13;2.60;;;1.87;;
283;SDS011;125;52.516;13.426;2023-06-22T06:59:41;2.30;;;0.90;;
283;SDS011;125;52.516;13.426;2023-06-22T07:02:07;2.00;;;1.70;;
283;SDS011;125;52.516;13.426;2023-06-22T07:04:34;2.53;;;1.20;;
283;SDS011;125;52.516;13.426;2023-06-22T07:07:02;1.40;;;0.97;;
283;SDS011;125;52.516;13.426;2023-06-22T07:09:29;1.50;;;1.27;;
283;SDS011;125;52.516;13.426;2023-06-22T07:11:56;1.23;;;0.90;;
283;SDS011;125;52.516;13.426;2023-06-22T07:14:24;3.70;;;2.87;;
283;SDS011;125;52.516;13.426;2023-06-22T07:16:51;1.60;;;1.03;;
283;SDS011;125;52.516;13.426;2023-06-22T07:19:23;2.43;;;1.10;;
283;SDS011;125;52.516;13.426;2023-06-22T07:21:51;2.30;;;1.40;;
283;SDS011;125;52.516;13.426;2023-06-22T07:24:18;2.30;;;1.40;;
283;SDS011;125;52.516;13.426;2023-06-22T07:26:45;1.87;;;1.63;;
283;SDS011;125;52.516;13.426;2023-06-22T07:29:13;2.20;;;1.77;;
283;SDS011;125;52.516;13.426;2023-06-22T07:31:41;1.80;;;1.53;;
283;SDS011;125;52.516;13.426;2023-06-22T07:34:08;1.97;;;1.33;;
283;SDS011;125;52.516;13.426;2023-06-22T07:36:35;2.40;;;1.43;;
283;SDS011;125;52.516;13.426;2023-06-22T07:39:02;1.60;;;0.90;;
283;SDS011;125;52.516;13.426;2023-06-22T07:41:29;1.10;;;0.73;;
283;SDS011;125;52.516;13.426;2023-06-22T07:43:56;2.57;;;1.40;;
283;SDS011;125;52.516;13.426;2023-06-22T07:46:27;2.10;;;1.30;;
283;SDS011;125;52.516;13.426;2023-06-22T07:48:56;1.43;;;0.97;;
283;SDS011;125;52.516;13.426;2023-06-22T07:51:24;6.03;;;1.40;;
283;SDS011;125;52.516;13.426;2023-06-22T07:53:51;1.20;;;1.03;;
283;SDS011;125;52.516;13.426;2023-06-22T07:56:18;2.83;;;1.37;;
283;SDS011;125;52.516;13.426;2023-06-22T07:58:46;1.50;;;0.83;;
283;SDS011;125;52.516;13.426;2023-06-22T08:01:13;4.07;;;1.63;;
283;SDS011;125;52.516;13.426;2023-06-22T08:03:40;1.33;;;0.90;;
283;SDS011;125;52.516;13.426;2023-06-22T08:06:08;1.57;;;0.77;;
283;SDS011;125;52.516;13.426;2023-06-22T08:08:36;2.53;;;1.40;;
283;SDS011;125;52.516;13.426;2023-06-22T08:11:03;1.70;;;1.10;;
283;SDS011;125;52.516;13.426;2023-06-22T08:13:31;1.17;;;0.70;;
283;SDS011;125;52.516;13.426;2023-06-22T08:15:58;2.43;;;1.10;;
283;SDS011;125;52.516;13.426;2023-06-22T08:18:25;4.20;;;1.43;;
283;SDS011;125;52.516;13.426;2023-06-22T08:20:52;2.03;;;1.10;;
283;SDS011;125;52.516;13.426;2023-06-22T08:23:21;2.00;;;1.00;;
283;SDS011;125;52.516;13.426;2023-06-22T08:25:47;1.20;;;0.57;;
283;SDS011;125;52.516;13.426;2023-06-22T08:28:15;4.63;;;4.20;;
283;SDS011;125;52.516;13.426;2023-06-22T08:30:42;1.17;;;0.73;;
283;SDS011;125;52.516;13.426;2023-06-22T08:33:09;1.63;;;1.57;;
283;SDS011;125;52.516;13.426;2023-06-22T08:35:36;2.50;;;1.63;;
283;SDS011;125;52.516;13.426;2023-06-22T08:38:03;1.97;;;0.67;;
283;SDS011;125;52.516;13.426;2023-06-22T08:40:31;1.83;;;0.80;;
283;SDS011;125;52.516;13.426;2023-06-22T08:42:58;2.10;;;1.47;;
283;SDS011;125;52.516;13.426;2023-06-22T08:45:25;2.20;;;1.60;;
283;SDS011;125;52.516;13.426;2023-06-22T08:47:52;2.17;;;1.23;;
283;SDS011;125;52.516;13.426;2023-06-22T08:50:19;1.83;;;1.20;;
283;SDS011;125;52.516;13.426;2023-06-22T08:52:46;1.03;;;0.63;;
283;SDS011;125;52.516;13.426;2023-06-22T08:55:13;3.20;;;1.20;;
283;SDS011;125;52.516;13.426;2023-06-22T08:57:41;2.50;;;1.00;;
283;SDS011;125;52.516;13.426;2023-06-22T09:00:09;3.10;;;1.93;;
283;SDS011;125;52.516;13.426;2023-06-22T09:02:41;1.40;;;0.90;;
283;SDS011;125;52.516;13.426;2023-06-22T09:05:08;1.77;;;1.10;;
283;SDS011;125;52.516;13.426;2023-06-22T09:07:35;1.40;;;1.00;;
283;SDS011;125;52.516;13.426;2023-06-22T09:10:02;2.03;;;1.27;;
283;SDS011;125;52.516;13.426;2023-06-22T09:12:30;1.27;;;0.80;;
283;SDS011;125;52.516;13.426;2023-06-22T09:14:59;1.60;;;1.00;;
283;SDS011;125;52.516;13.426;2023-06-22T09:17:26;3.20;;;1.43;;
283;SDS011;125;52.516;13.426;2023-06-22T09:19:53;2.03;;;1.20;;
283;SDS011;125;52.516;13.426;2023-06-22T09:22:20;2.20;;;1.70;;
283;SDS011;125;52.516;13.426;2023-06-22T09:24:47;4.90;;;2.33;;
283;SDS011;125;52.516;13.426;2023-06-22T09:27:14;2.70;;;1.00;;
283;SDS011;125;52.516;13.426;2023-06-22T09:29:41;2.00;;;1.20;;
283;SDS011;125;52.516;13.426;2023-06-22T09:32:10;1.30;;;1.13;;
283;SDS011;125;52.516;13.426;2023-06-22T09:34:37;1.60;;;1.47;;
283;SDS011;125;52.516;13.426;2023-06-22T09:37:04;1.10;;;0.63;;
283;SDS011;125;52.516;13.426;2023-06-22T09:39:31;2.50;;;1.00;;
283;SDS011;125;52.516;13.426;2023-06-22T09:41:59;2.27;;;1.70;;
283;SDS011;125;52.516;13.426;2023-06-22T09:44:26;2.00;;;1.40;;
283;SDS011;125;52.516;13.426;2023-06-22T09:46:53;2.20;;;1.40;;
283;SDS011;125;52.516;13.426;2023-06-22T09:49:21;1.87;;;0.87;;
283;SDS011;125;52.516;13.426;2023-06-22T09:51:48;1.53;;;1.20;;
283;SDS011;125;52.516;13.426;2023-06-22T09:54:16;1.63;;;0.90;;
283;SDS011;125;52.516;13.426;2023-06-22T09:56:42;2.63;;;0.97;;
283;SDS011;125;52.516;13.426;2023-06-22T09:59:09;1.57;;;0.93;;
283;SDS011;125;52.516;13.426;2023-06-22T10:01:36;1.80;;;1.17;;
283;SDS011;125;52.516;13.426;2023-06-22T10:04:03;1.80;;;1.10;;
283;SDS011;125;52.516;13.426;2023-06-22T10:06:32;1.90;;;1.30;;
283;SDS011;125;52.516;13.426;2023-06-22T10:08:59;2.60;;;1.47;;
283;SDS011;125;52.516;13.426;2023-06-22T10:11:26;1.30;;;1.00;;
283;SDS011;125;52.516;13.426;2023-06-22T10:13:55;2.17;;;1.10;;
283;SDS011;125;52.516;13.426;2023-06-22T10:16:23;1.80;;;1.20;;
283;SDS011;125;52.516;13.426;2023-06-22T10:18:52;1.97;;;1.23;;
283;SDS011;125;52.516;13.426;2023-06-22T10:21:19;5.67;;;1.70;;
283;SDS011;125;52.516;13.426;2023-06-22T10:23:48;2.67;;;1.20;;
283;SDS011;125;52.516;13.426;2023-06-22T10:26:14;1.87;;;1.37;;
283;SDS011;125;52.516;13.426;2023-06-22T10:28:41;2.60;;;1.63;;
283;SDS011;125;52.516;13.426;2023-06-22T10:31:08;1.87;;;1.30;;
283;SDS011;125;52.516;13.426;2023-06-22T10:33:35;2.17;;;1.43;;
283;SDS011;125;52.516;13.426;2023-06-22T10:36:02;3.17;;;1.73;;
283;SDS011;125;52.516;13.426;2023-06-22T10:38:29;2.37;;;1.40;;
283;SDS011;125;52.516;13.426;2023-06-22T10:40:57;1.20;;;0.70;;
283;SDS011;125;52.516;13.426;2023-06-22T10:43:24;1.90;;;1.53;;
283;SDS011;125;52.516;13.426;2023-06-22T10:45:51;1.60;;;1.20;;
283;SDS011;125;52.516;13.426;2023-06-22T10:48:18;2.93;;;1.67;;
283;SDS011;125;52.516;13.426;2023-06-22T10:50:46;1.83;;;1.27;;
283;SDS011;125;52.516;13.426;2023-06-22T10:53:13;2.93;;;1.17;;
283;SDS011;125;52.516;13.426;2023-06-22T10:55:41;1.93;;;1.87;;
283;SDS011;125;52.516;13.426;2023-06-22T10:58:10;2.13;;;1.17;;
283;SDS011;125;52.516;13.426;2023-06-22T11:00:37;2.23;;;1.67;;
283;SDS011;125;52.516;13.426;2023-06-22T11:03:03;2.70;;;1.17;;
283;SDS011;125;52.516;13.426;2023-06-22T11:05:31;2.90;;;1.33;;
283;SDS011;125;52.516;13.426;2023-06-22T11:07:58;1.60;;;1.27;;
283;SDS011;125;52.516;13.426;2023-06-22T11:10:25;2.90;;;1.80;;
283;SDS011;125;52.516;13.426;2023-06-22T11:12:52;2.50;;;1.53;;
283;SDS011;125;52.516;13.426;2023-06-22T11:15:21;2.30;;;1.83;;
283;SDS011;125;52.516;13.426;2023-06-22T11:17:48;1.63;;;0.90;;
283;SDS011;125;52.516;13.426;2023-06-22T11:20:15;1.83;;;0.90;;
283;SDS011;125;52.516;13.426;2023-06-22T11:22:42;1.60;;;1.20;;
283;SDS011;125;52.516;13.426;2023-06-22T11:25:09;2.83;;;1.03;;
283;SDS011;125;52.516;13.426;2023-06-22T11:27:37;2.10;;;1.73;;
283;SDS011;125;52.516;13.426;2023-06-22T11:30:05;1.70;;;1.50;;
283;SDS011;125;52.516;13.426;2023-06-22T11:32:33;1.40;;;1.03;;
283;SDS011;125;52.516;13.426;2023-06-22T11:35:00;2.50;;;1.50;;
283;SDS011;125;52.516;13.426;2023-06-22T11:37:27;2.77;;;1.50;;
283;SDS011;125;52.516;13.426;2023-06-22T11:39:54;1.40;;;1.17;;
283;SDS011;125;52.516;13.426;2023-06-22T11:42:21;2.20;;;1.27;;
283;SDS011;125;52.516;13.426;2023-06-22T11:44:49;1.80;;;1.40;;
283;SDS011;125;52.516;13.426;2023-06-22T11:47:16;2.63;;;1.20;;
283;SDS011;125;52.516;13.426;2023-06-22T11:49:44;1.70;;;1.00;;
283;SDS011;125;52.516;13.426;2023-06-22T11:52:11;1.97;;;1.80;;
283;SDS011;125;52.516;13.426;2023-06-22T11:54:38;1.67;;;0.97;;
283;SDS011;125;52.516;13.426;2023-06-22T11:57:05;2.03;;;1.23;;
283;SDS011;125;52.516;13.426;2023-06-22T11:59:33;2.63;;;1.20;;
283;SDS011;125;52.516;13.426;2023-06-22T12:02:00;1.63;;;0.93;;
283;SDS011;125;52.516;13.426;2023-06-22T12:04:27;1.80;;;1.20;;
283;SDS011;125;52.516;13.426;2023-06-22T12:06:55;2.60;;;1.57;;
283;SDS011;125;52.516;13.426;2023-06-22T12:09:23;2.23;;;1.17;;
283;SDS011;125;52.516;13.426;2023-06-22T12:11:50;2.20;;;1.50;;
283;SDS011;125;52.516;13.426;2023-06-22T12:14:17;2.47;;;1.57;;
283;SDS011;125;52.516;13.426;2023-06-22T12:16:44;2.07;;;1.43;;
283;SDS011;125;52.516;13.426;2023-06-22T12:19:11;4.03;;;1.83;;
283;SDS011;125;52.516;13.426;2023-06-22T12:21:38;3.37;;;1.50;;
283;SDS011;125;52.516;13.426;2023-06-22T12:24:07;1.70;;;1.37;;
283;SDS011;125;52.516;13.426;2023-06-22T12:26:33;3.53;;;1.30;;
283;SDS011;125;52.516;13.426;2023-06-22T12:29:00;2.83;;;1.20;;
283;SDS011;125;52.516;13.426;2023-06-22T12:31:27;1.87;;;1.40;;
283;SDS011;125;52.516;13.426;2023-06-22T12:33:54;2.50;;;1.50;;
283;SDS011;125;52.516;13.426;2023-06-22T12:36:21;5.63;;;2.20;;
283;SDS011;125;52.516;13.426;2023-06-22T12:38:49;2.03;;;1.17;;
283;SDS011;125;52.516;13.426;2023-06-22T12:41:18;2.23;;;1.30;;
283;SDS011;125;52.516;13.426;2023-06-22T12:43:45;2.27;;;1.70;;
283;SDS011;125;52.516;13.426;2023-06-22T12:46:12;2.47;;;1.40;;
283;SDS011;125;52.516;13.426;2023-06-22T12:48:38;1.50;;;1.07;;
283;SDS011;125;52.516;13.426;2023-06-22T12:51:07;2.10;;;1.73;;
283;SDS011;125;52.516;13.426;2023-06-22T12:53:34;2.30;;;1.47;;
283;SDS011;125;52.516;13.426;2023-06-22T12:56:01;9.50;;;2.10;;
283;SDS011;125;52.516;13.426;2023-06-22T12:58:29;1.70;;;1.40;;
283;SDS011;125;52.516;13.426;2023-06-22T13:00:56;3.83;;;2.00;;
283;SDS011;125;52.516;13.426;2023-06-22T13:03:23;1.60;;;1.47;;
283;SDS011;125;52.516;13.426;2023-06-22T13:05:52;2.00;;;1.60;;
283;SDS011;125;52.516;13.426;2023-06-22T13:08:19;3.80;;;2.20;;
283;SDS011;125;52.516;13.426;2023-06-22T13:10:46;2.27;;;1.67;;
283;SDS011;125;52.516;13.426;2023-06-22T13:13:13;4.30;;;1.80;;
283;SDS011;125;52.516;13.426;2023-06-22T13:15:42;3.10;;;1.80;;
283;SDS011;125;52.516;13.426;2023-06-22T13:18:09;2.60;;;1.43;;
283;SDS011;125;52.516;13.426;2023-06-22T13:20:36;1.60;;;1.50;;
283;SDS011;125;52.516;13.426;2023-06-22T13:23:06;2.27;;;1.47;;
283;SDS011;125;52.516;13.426;2023-06-22T13:25:34;2.00;;;1.40;;
283;SDS011;125;52.516;13.426;2023-06-22T13:28:01;1.67;;;1.33;;
283;SDS011;125;52.516;13.426;2023-06-22T13:30:28;2.13;;;1.77;;
283;SDS011;125;52.516;13.426;2023-06-22T13:32:58;2.00;;;1.90;;
283;SDS011;125;52.516;13.426;2023-06-22T13:35:25;2.00;;;1.37;;
283;SDS011;125;52.516;13.426;2023-06-22T13:37:52;1.53;;;1.07;;
283;SDS011;125;52.516;13.426;2023-06-22T13:40:19;2.60;;;1.70;;
283;SDS011;125;52.516;13.426;2023-06-22T13:42:47;1.83;;;1.50;;
283;SDS011;125;52.516;13.426;2023-06-22T13:45:14;2.60;;;1.27;;
283;SDS011;125;52.516;13.426;2023-06-22T13:47:43;3.30;;;2.10;;
283;SDS011;125;52.516;13.426;2023-06-22T13:50:12;2.03;;;1.80;;
283;SDS011;125;52.516;13.426;2023-06-22T13:52:39;2.13;;;1.67;;
283;SDS011;125;52.516;13.426;2023-06-22T13:55:07;1.27;;;0.93;;
283;SDS011;125;52.516;13.426;2023-06-22T13:57:35;2.00;;;1.20;;
283;SDS011;125;52.516;13.426;2023-06-22T14:00:05;1.77;;;1.47;;
283;SDS011;125;52.516;13.426;2023-06-22T14:02:34;2.70;;;2.00;;
283;SDS011;125;52.516;13.426;2023-06-22T14:05:01;2.70;;;1.23;;
283;SDS011;125;52.516;13.426;2023-06-22T14:07:29;2.63;;;1.43;;
283;SDS011;125;52.516;13.426;2023-06-22T14:09:56;3.53;;;2.13;;
283;SDS011;125;52.516;13.426;2023-06-22T14:12:23;2.20;;;1.30;;
283;SDS011;125;52.516;13.426;2023-06-22T14:14:51;2.33;;;1.60;;
283;SDS011;125;52.516;13.426;2023-06-22T14:17:18;2.50;;;1.63;;
283;SDS011;125;52.516;13.426;2023-06-22T14:19:48;1.67;;;1.20;;
283;SDS011;125;52.516;13.426;2023-06-22T14:22:17;1.70;;;1.50;;
283;SDS011;125;52.516;13.426;2023-06-22T14:24:45;2.53;;;1.67;;
283;SDS011;125;52.516;13.426;2023-06-22T14:27:12;2.57;;;1.30;;
283;SDS011;125;52.516;13.426;2023-06-22T14:29:39;1.90;;;1.43;;
283;SDS011;125;52.516;13.426;2023-06-22T14:32:07;4.03;;;2.17;;
283;SDS011;125;52.516;13.426;2023-06-22T14:34:35;2.70;;;1.87;;
283;SDS011;125;52.516;13.426;2023-06-22T14:37:05;1.50;;;0.93;;
283;SDS011;125;52.516;13.426;2023-06-22T14:39:32;2.73;;;1.40;;
283;SDS011;125;52.516;13.426;2023-06-22T14:42:00;2.60;;;1.57;;
283;SDS011;125;52.516;13.426;2023-06-22T14:44:29;3.30;;;2.13;;
283;SDS011;125;52.516;13.426;2023-06-22T14:46:57;1.60;;;0.90;;
283;SDS011;125;52.516;13.426;2023-06-22T14:49:25;2.27;;;1.87;;
283;SDS011;125;52.516;13.426;2023-06-22T14:51:51;1.93;;;1.33;;
283;SDS011;125;52.516;13.426;2023-06-22T14:54:19;1.67;;;1.10;;
283;SDS011;125;52.516;13.426;2023-06-22T14:56:47;1.60;;;1.00;;
283;SDS011;125;52.516;13.426;2023-06-22T14:59:16;1.90;;;1.43;;
283;SDS011;125;52.516;13.426;2023-06-22T15:01:43;2.60;;;1.77;;
283;SDS011;125;52.516;13.426;2023-06-22T15:04:10;2.63;;;1.97;;
283;SDS011;125;52.516;13.426;2023-06-22T15:06:37;2.87;;;1.73;;
283;SDS011;125;52.516;13.426;2023-06-22T15:09:04;2.13;;;1.70;;
283;SDS011;125;52.516;13.426;2023-06-22T15:11:33;3.53;;;1.40;;
283;SDS011;125;52.516;13.426;2023-06-22T15:14:02;1.93;;;1.27;;
283;SDS011;125;52.516;13.426;2023-06-22T15:16:30;2.63;;;1.63;;
283;SDS011;125;52.516;13.426;2023-06-22T15:18:57;2.77;;;2.27;;
283;SDS011;125;52.516;13.426;2023-06-22T15:21:25;2.27;;;1.70;;
283;SDS011;125;52.516;13.426;2023-06-22T15:23:52;3.33;;;1.20;;
283;SDS011;125;52.516;13.426;2023-06-22T15:26:20;2.80;;;1.60;;
283;SDS011;125;52.516;13.426;2023-06-22T15:28:47;1.53;;;1.47;;
283;SDS011;125;52.516;13.426;2023-06-22T15:31:14;1.63;;;1.23;;